createdAt,value
2022-12-28T00:01:03.762Z,2.4
2022-12-28T00:03:09.664Z,2.7
2022-12-28T00:05:15.289Z,3.2
2022-12-28T00:07:21.052Z,3
2022-12-28T00:09:26.763Z,2.9
2022-12-28T00:11:32.512Z,2.3
2022-12-28T00:13:41.344Z,3
2022-12-28T00:15:47.111Z,3.3
2022-12-28T00:17:52.846Z,3.9
2022-12-28T00:19:58.607Z,3.1
2022-12-28T00:22:04.337Z,4.1
2022-12-28T00:24:10.096Z,2.9
2022-12-28T00:26:15.823Z,2.8
2022-12-28T00:28:24.621Z,4.1
2022-12-28T00:30:30.363Z,3.3
2022-12-28T00:32:36.133Z,3.3
2022-12-28T00:35:46.246Z,3.6
2022-12-28T00:37:52.006Z,2.9
2022-12-28T00:42:06.559Z,2.8
2022-12-28T00:46:18.035Z,3.5
2022-12-28T00:48:23.781Z,3
2022-12-28T00:50:29.539Z,4
2022-12-28T00:52:35.272Z,2.8
2022-12-28T00:54:41.019Z,3.7
2022-12-28T00:56:49.843Z,2.4
2022-12-28T00:58:55.577Z,3.8
2022-12-28T01:03:07.139Z,5.3
2022-12-28T01:07:18.577Z,3
2022-12-28T01:09:24.353Z,3
2022-12-28T01:11:33.143Z,3.1
2022-12-28T01:13:38.874Z,2.9
2022-12-28T01:15:44.616Z,2.9
2022-12-28T01:17:50.363Z,2.9
2022-12-28T01:22:01.864Z,2.8
2022-12-28T01:24:07.618Z,3.3
2022-12-28T01:26:16.441Z,2.6
2022-12-28T01:28:22.179Z,3.8
2022-12-28T01:30:27.927Z,3.1
2022-12-28T01:33:38.055Z,2.9
2022-12-28T01:35:43.802Z,2.1
2022-12-28T01:37:49.556Z,3.4
2022-12-28T01:46:15.705Z,3.1
2022-12-28T01:50:27.173Z,3.6
2022-12-28T01:56:47.517Z,2.4
2022-12-28T01:58:53.233Z,3.2
2022-12-28T02:00:59.092Z,2.9
2022-12-28T02:03:04.821Z,3.6
2022-12-28T02:05:10.488Z,3.5
2022-12-28T02:07:16.281Z,3
2022-12-28T02:09:25.112Z,3
2022-12-28T02:11:30.866Z,3.3
2022-12-28T02:13:36.633Z,3.2
2022-12-28T02:17:48.175Z,3.3
2022-12-28T02:19:53.920Z,3.5
2022-12-28T02:24:08.510Z,3.6
2022-12-28T02:26:14.299Z,3.6
2022-12-28T02:28:20.044Z,4.5
2022-12-28T02:29:24.480Z,4.5
2022-12-28T02:31:30.221Z,3.6
2022-12-28T02:35:41.754Z,3.6
2022-12-28T02:37:50.610Z,4.4
2022-12-28T02:44:07.893Z,3
2022-12-28T02:46:13.722Z,3.3
2022-12-28T02:50:26.741Z,4.2
2022-12-28T02:52:35.588Z,3.1
2022-12-28T02:54:41.362Z,3
2022-12-28T02:56:47.168Z,3.2
2022-12-28T02:58:52.864Z,3.8
2022-12-28T03:00:58.719Z,3.9
2022-12-28T03:03:04.421Z,3.7
2022-12-28T03:05:10.184Z,3.6
2022-12-28T03:07:18.993Z,4.1
2022-12-28T03:09:24.760Z,4
2022-12-28T03:11:30.490Z,2.9
2022-12-28T03:13:36.293Z,3.7
2022-12-28T03:15:42.083Z,3.4
2022-12-28T03:17:47.834Z,5.5
2022-12-28T03:19:53.571Z,4
2022-12-28T03:22:02.388Z,3
2022-12-28T03:24:08.210Z,3.2
2022-12-28T03:26:13.959Z,3.1
2022-12-28T03:28:33.967Z,3.8
2022-12-28T03:30:39.815Z,2.1
2022-12-28T03:32:45.514Z,3.5
2022-12-28T03:37:00.139Z,2
2022-12-28T03:39:05.851Z,3.4
2022-12-28T03:41:11.661Z,2.9
2022-12-28T03:43:17.407Z,2.6
2022-12-28T03:45:46.363Z,3.2
2022-12-28T03:47:28.931Z,1.8
2022-12-28T03:49:37.770Z,3
2022-12-28T03:51:43.543Z,3
2022-12-28T03:53:49.307Z,2.2
2022-12-28T03:55:55.054Z,2.8
2022-12-28T03:58:00.794Z,3.1
2022-12-28T04:00:06.537Z,3
2022-12-28T04:02:12.454Z,2.7
2022-12-28T04:04:21.151Z,3.4
2022-12-28T04:06:26.941Z,3.7
2022-12-28T04:08:32.688Z,3
2022-12-28T04:10:38.448Z,4.4
2022-12-28T04:12:44.196Z,4.3
2022-12-28T04:14:49.942Z,4.2
2022-12-28T04:16:55.717Z,4.1
2022-12-28T04:19:04.578Z,5.1
2022-12-28T04:21:10.367Z,4.6
2022-12-28T04:23:16.113Z,3.8
2022-12-28T04:24:20.498Z,4.1
2022-12-28T04:26:26.263Z,4.1
2022-12-28T04:28:32.030Z,5.6
2022-12-28T04:30:37.808Z,3.3
2022-12-28T04:32:46.644Z,4.3
2022-12-28T04:34:52.395Z,4.6
2022-12-28T04:36:58.171Z,3.7
2022-12-28T04:39:03.947Z,3.7
2022-12-28T04:41:09.709Z,3.9
2022-12-28T04:43:15.481Z,4.7
2022-12-28T04:45:22.347Z,4.3
2022-12-28T04:47:30.100Z,5.5
2022-12-28T04:49:35.879Z,5.2
2022-12-28T04:51:41.618Z,5.4
2022-12-28T04:53:47.382Z,5.3
2022-12-28T04:55:53.150Z,5
2022-12-28T04:57:58.936Z,5
2022-12-28T05:00:04.727Z,4.4
2022-12-28T05:04:19.316Z,4.9
2022-12-28T05:06:25.090Z,5.1
2022-12-28T05:08:30.860Z,6.4
2022-12-28T05:10:36.651Z,5.6
2022-12-28T05:12:42.415Z,5.2
2022-12-28T05:14:48.197Z,6.8
2022-12-28T05:16:57.050Z,6.8
2022-12-28T05:22:13.040Z,7.1
2022-12-28T05:24:18.808Z,6.4
2022-12-28T05:26:24.602Z,7.2
2022-12-28T05:28:30.408Z,8.3
2022-12-28T05:30:39.258Z,7.2
2022-12-28T05:32:45.046Z,6.8
2022-12-28T05:34:50.854Z,6.2
2022-12-28T05:36:56.645Z,8.2
2022-12-28T05:39:02.429Z,7.4
2022-12-28T05:41:08.227Z,7.9
2022-12-28T05:43:14.018Z,7.6
2022-12-28T05:45:22.856Z,8
2022-12-28T05:47:28.653Z,8.3
2022-12-28T05:49:34.441Z,8.3
2022-12-28T05:51:40.351Z,8.6
2022-12-28T05:53:45.997Z,7.8
2022-12-28T05:55:51.784Z,8.6
2022-12-28T05:57:57.588Z,8.1
2022-12-28T06:00:06.437Z,8.2
2022-12-28T06:02:12.404Z,8.5
2022-12-28T06:04:18.019Z,8.7
2022-12-28T06:06:23.818Z,8.2
2022-12-28T06:08:29.614Z,7.5
2022-12-28T06:10:35.398Z,8.9
2022-12-28T06:12:41.175Z,8.6
2022-12-28T06:14:50.069Z,9.2
2022-12-28T06:16:55.905Z,9
2022-12-28T06:19:01.688Z,7.7
2022-12-28T06:20:06.128Z,9.5
2022-12-28T06:24:17.747Z,9.2
2022-12-28T06:26:23.533Z,7
2022-12-28T06:28:32.395Z,7.9
2022-12-28T06:30:38.204Z,6.2
2022-12-28T06:32:43.986Z,6.6
2022-12-28T06:34:49.799Z,7.5
2022-12-28T06:36:55.592Z,8
2022-12-28T06:43:16.112Z,8
2022-12-28T06:45:21.902Z,7.4
2022-12-28T06:47:27.721Z,6.9
2022-12-28T06:51:39.295Z,6.7
2022-12-28T06:53:45.124Z,6.8
2022-12-28T06:55:50.891Z,5.6
2022-12-28T07:00:05.604Z,5.3
2022-12-28T07:02:11.683Z,5.8
2022-12-28T07:10:34.613Z,5.9
2022-12-28T07:14:49.237Z,5.4
2022-12-28T07:16:55.027Z,5.7
2022-12-28T07:21:30.416Z,6
2022-12-28T07:23:36.223Z,6.9
2022-12-28T07:25:45.095Z,7.7
2022-12-28T07:32:02.593Z,7.1
2022-12-28T07:34:08.286Z,6.5
2022-12-28T07:36:14.098Z,7.6
2022-12-28T07:38:21.722Z,5.8
2022-12-28T07:46:46.297Z,6.1
2022-12-28T07:48:52.047Z,6.8
2022-12-28T07:50:57.877Z,6.9
2022-12-28T07:53:03.682Z,7.8
2022-12-28T07:55:12.572Z,6.7
2022-12-28T07:57:18.408Z,7.5
2022-12-28T07:59:30.656Z,6.1
2022-12-28T08:05:41.642Z,7.1
2022-12-28T08:07:47.453Z,7.4
2022-12-28T08:09:56.335Z,7
2022-12-28T08:12:02.143Z,6.7
2022-12-28T08:14:07.957Z,6.8
2022-12-28T08:17:21.162Z,7
2022-12-28T08:19:24.036Z,6.5
2022-12-28T08:21:29.824Z,8.3
2022-12-28T08:23:38.739Z,8.1
2022-12-28T08:25:44.455Z,8.2
2022-12-28T08:27:50.262Z,7.5
2022-12-28T08:29:56.087Z,9.1
2022-12-28T08:32:01.898Z,8.5
2022-12-28T08:34:07.694Z,10.7
2022-12-28T08:36:13.525Z,8.7
2022-12-28T08:40:28.275Z,7.2
2022-12-28T08:44:39.868Z,8.9
2022-12-28T08:46:45.827Z,8.5
2022-12-28T08:48:51.496Z,7.3
2022-12-28T08:50:58.920Z,7.2
2022-12-28T08:55:13.565Z,8.2
2022-12-28T08:57:19.368Z,6.1
2022-12-28T09:03:36.871Z,6.7
2022-12-28T09:07:56.177Z,8.3
2022-12-28T09:09:57.397Z,7.2
2022-12-28T09:12:03.177Z,7.9
2022-12-28T09:13:07.606Z,6.8
2022-12-28T09:15:13.428Z,6.7
2022-12-28T09:17:19.205Z,6.5
2022-12-28T09:19:25.039Z,8.4
2022-12-28T09:21:33.956Z,8.7
2022-12-28T09:23:39.737Z,8.5
2022-12-28T09:25:45.535Z,6.9
2022-12-28T09:27:56.018Z,8.3
2022-12-28T09:29:57.183Z,7.7
2022-12-28T09:32:02.880Z,7.4
2022-12-28T09:34:37.301Z,7
2022-12-28T09:36:17.594Z,7.3
2022-12-28T09:38:23.401Z,8.3
2022-12-28T09:48:52.458Z,6.8
2022-12-28T09:51:01.357Z,6.8
2022-12-28T09:53:07.153Z,6.1
2022-12-28T09:57:18.802Z,6.2
2022-12-28T09:59:24.617Z,4.9
2022-12-28T10:07:50.973Z,5.2
2022-12-28T10:11:01.260Z,4.5
2022-12-28T10:13:16.568Z,4.6
2022-12-28T10:15:12.879Z,5
2022-12-28T10:17:18.679Z,5.6
2022-12-28T10:19:27.575Z,5.5
2022-12-28T10:21:33.508Z,5.4
2022-12-28T10:23:56.835Z,5.1
2022-12-28T10:25:44.804Z,5.2
2022-12-28T10:27:50.644Z,5.2
2022-12-28T10:29:56.430Z,4.7
2022-12-28T10:32:02.271Z,4.8
2022-12-28T10:34:11.141Z,6.5
2022-12-28T10:36:16.876Z,5.7
2022-12-28T10:38:22.581Z,5.6
2022-12-28T10:42:34.165Z,4.1
2022-12-28T10:46:45.876Z,4.7
2022-12-28T10:48:54.601Z,4.3
2022-12-28T10:51:00.382Z,3.3
2022-12-28T10:53:06.037Z,4.7
2022-12-28T10:55:11.855Z,3.4
2022-12-28T10:57:17.672Z,4.4
2022-12-28T10:59:23.439Z,4
2022-12-28T11:01:29.289Z,4.2
2022-12-28T11:03:38.009Z,4
2022-12-28T11:05:43.818Z,5.1
2022-12-28T11:07:49.667Z,4.2
2022-12-28T11:12:26.714Z,3.4
2022-12-28T11:14:32.418Z,3.8
2022-12-28T11:16:41.423Z,4
2022-12-28T11:18:47.044Z,4.3
2022-12-28T11:20:52.865Z,3.3
2022-12-28T11:22:58.703Z,3.9
2022-12-28T11:25:04.496Z,3.2
2022-12-28T11:27:10.310Z,2.9
2022-12-28T11:29:16.134Z,2.9
2022-12-28T11:31:25.199Z,3.1
2022-12-28T11:33:30.853Z,2.2
2022-12-28T11:37:42.274Z,1.6
2022-12-28T11:39:47.992Z,1.8
2022-12-28T11:42:27.699Z,1.7
2022-12-28T11:48:14.136Z,1.6
2022-12-28T11:54:31.501Z,1.1
2022-12-28T11:56:37.334Z,1.8
2022-12-28T11:58:43.038Z,1.7
2022-12-28T12:05:03.391Z,1.3
2022-12-28T12:06:07.835Z,2.3
2022-12-28T12:08:13.604Z,2.2
2022-12-28T12:12:25.098Z,1.2
2022-12-28T12:14:33.877Z,1.3
2022-12-28T12:16:39.642Z,1.5
2022-12-28T12:18:45.418Z,6.1
2022-12-28T12:20:51.134Z,2.1
2022-12-28T12:22:56.858Z,2.6
2022-12-28T12:25:02.667Z,1.2
2022-12-28T12:27:12.074Z,1.9
2022-12-28T12:29:17.349Z,2
2022-12-28T12:31:23.107Z,2
2022-12-28T12:33:28.784Z,2.2
2022-12-28T12:35:34.497Z,2
2022-12-28T12:39:45.933Z,2
2022-12-28T12:41:51.756Z,2.5
2022-12-28T12:44:00.562Z,2
2022-12-28T12:46:06.282Z,9.7
2022-12-28T12:50:17.713Z,2.1
2022-12-28T12:52:23.415Z,1.7
2022-12-28T12:54:29.248Z,1.9
2022-12-28T12:56:35.046Z,2.4
2022-12-28T12:58:43.973Z,2.5
2022-12-28T13:00:49.796Z,2
2022-12-28T13:02:55.708Z,2.6
2022-12-28T13:04:00.072Z,4.9
2022-12-28T13:06:05.751Z,2.3
2022-12-28T13:10:17.207Z,3
2022-12-28T13:12:26.095Z,1.8
2022-12-28T13:14:31.828Z,3.3
2022-12-28T13:16:37.559Z,2.6
2022-12-28T13:18:44.982Z,2.8
2022-12-28T13:20:49.190Z,2.1
2022-12-28T13:22:54.907Z,3.2
2022-12-28T13:25:00.609Z,3.5
2022-12-28T13:27:12.431Z,2.8
2022-12-28T13:29:15.168Z,2.7
2022-12-28T13:31:21.047Z,2.5
2022-12-28T13:33:26.791Z,2.6
2022-12-28T13:35:32.634Z,2.2
2022-12-28T13:39:44.277Z,2.4
2022-12-28T13:41:52.988Z,3.2
2022-12-28T13:43:58.791Z,3
2022-12-28T13:46:04.756Z,3
2022-12-28T13:48:10.471Z,2.6
2022-12-28T13:50:16.186Z,2.6
2022-12-28T13:52:21.893Z,4.6
2022-12-28T13:54:27.735Z,5.2
2022-12-28T13:56:36.554Z,4.1
2022-12-28T13:58:42.275Z,2.7
2022-12-28T14:00:47.991Z,2.4
2022-12-28T14:01:52.455Z,2.8
2022-12-28T14:12:24.385Z,3
2022-12-28T14:14:30.215Z,2.7
2022-12-28T14:16:36.058Z,4
2022-12-28T14:18:41.882Z,3.2
2022-12-28T14:20:47.698Z,3
2022-12-28T14:22:53.432Z,3.7
2022-12-28T14:25:02.258Z,3.9
2022-12-28T14:27:08.096Z,3.1
2022-12-28T14:29:13.920Z,2.5
2022-12-28T14:31:19.736Z,2.7
2022-12-28T14:33:25.484Z,3.3
2022-12-28T14:35:31.089Z,3.4
2022-12-28T14:37:36.921Z,3.8
2022-12-28T14:39:45.821Z,4.9
2022-12-28T14:41:51.666Z,6.9
2022-12-28T14:43:57.505Z,3.9
2022-12-28T14:46:07.406Z,3.6
2022-12-28T14:48:09.043Z,3.8
2022-12-28T14:50:14.781Z,3.5
2022-12-28T14:56:36.483Z,2.9
2022-12-28T14:58:42.639Z,3.4
2022-12-28T15:03:19.669Z,12.2
2022-12-28T15:05:25.317Z,3.7
2022-12-28T15:07:34.132Z,2.3
2022-12-28T15:09:39.869Z,2.3
2022-12-28T15:11:45.685Z,2.5
2022-12-28T15:13:51.508Z,3.4
2022-12-28T15:15:57.317Z,2.6
2022-12-28T15:18:02.951Z,3
2022-12-28T15:20:08.806Z,2.6
2022-12-28T15:22:17.780Z,2.6
2022-12-28T15:24:26.228Z,1.9
2022-12-28T15:26:28.927Z,2.9
2022-12-28T15:28:34.656Z,3
2022-12-28T15:30:40.417Z,6.9
2022-12-28T15:34:51.958Z,2.3
2022-12-28T15:37:00.740Z,2.3
2022-12-28T15:39:06.608Z,2.9
2022-12-28T15:41:12.387Z,2.1
2022-12-28T15:47:29.750Z,1.9
2022-12-28T15:49:35.497Z,1.5
2022-12-28T15:51:44.193Z,2.4
2022-12-28T15:53:49.931Z,2.8
2022-12-28T15:55:55.637Z,2.1
2022-12-28T15:57:00.010Z,1.9
2022-12-28T15:59:05.787Z,2.1
2022-12-28T16:01:11.546Z,2.1
2022-12-28T16:03:17.236Z,2.2
2022-12-28T16:05:25.914Z,1.9
2022-12-28T16:07:31.728Z,2.7
2022-12-28T16:09:37.495Z,1.8
2022-12-28T16:11:43.309Z,2
2022-12-28T16:13:49.027Z,1.8
2022-12-28T16:15:54.769Z,2.4
2022-12-28T16:18:00.487Z,1.8
2022-12-28T16:22:14.931Z,1.6
2022-12-28T16:24:20.707Z,1.8
2022-12-28T16:26:26.401Z,1.9
2022-12-28T16:28:32.148Z,1.7
2022-12-28T16:30:37.868Z,1.9
2022-12-28T16:34:52.283Z,2.6
2022-12-28T16:36:58.049Z,1.8
2022-12-28T16:39:03.864Z,2.2
2022-12-28T16:41:09.586Z,2.2
2022-12-28T16:43:15.324Z,3
2022-12-28T16:45:21.062Z,2.9
2022-12-28T16:47:26.778Z,3.6
2022-12-28T16:49:35.501Z,2.8
2022-12-28T16:51:41.237Z,3.8
2022-12-28T16:53:46.949Z,3
2022-12-28T16:54:51.292Z,3.1
2022-12-28T16:56:57.046Z,2.5
2022-12-28T16:59:02.874Z,2.2
2022-12-28T17:01:08.797Z,2.9
2022-12-28T17:03:17.514Z,2.2
2022-12-28T17:05:23.161Z,2.9
2022-12-28T17:07:28.869Z,3.2
2022-12-28T17:09:34.700Z,2.7
2022-12-28T17:11:40.538Z,2.5
2022-12-28T17:13:46.234Z,2.4
2022-12-28T17:15:51.942Z,5.1
2022-12-28T17:18:00.883Z,4.4
2022-12-28T17:20:06.572Z,3.3
2022-12-28T17:22:12.461Z,2.5
2022-12-28T17:24:18.163Z,2.8
2022-12-28T17:28:29.648Z,2.7
2022-12-28T17:30:35.386Z,3.1
2022-12-28T17:32:44.317Z,5.2
2022-12-28T17:34:49.989Z,4.5
2022-12-28T17:36:55.721Z,3.9
2022-12-28T17:39:01.561Z,2.7
2022-12-28T17:41:07.269Z,2.4
2022-12-28T17:43:12.999Z,3.8
2022-12-28T17:45:18.694Z,3.7
2022-12-28T17:47:27.601Z,3.1
2022-12-28T17:49:33.337Z,2.9
2022-12-28T17:51:39.153Z,4
2022-12-28T17:54:49.245Z,4.8
2022-12-28T17:56:55.014Z,3.6
2022-12-28T17:59:00.744Z,3.2
2022-12-28T18:01:09.734Z,3.3
2022-12-28T18:03:15.473Z,3.6
2022-12-28T18:05:21.258Z,3.4
2022-12-28T18:07:27.007Z,2.8
2022-12-28T18:09:32.815Z,4.3
2022-12-28T18:11:38.633Z,2.5
2022-12-28T18:13:44.464Z,3.1
2022-12-28T18:15:53.369Z,3.3
2022-12-28T18:17:59.181Z,2.5
2022-12-28T18:22:10.810Z,2.8
2022-12-28T18:24:16.538Z,2.5
2022-12-28T18:26:22.275Z,3.3
2022-12-28T18:28:27.976Z,2.3
2022-12-28T18:30:36.939Z,3.6
2022-12-28T18:34:48.508Z,2.6
2022-12-28T18:36:54.336Z,3
2022-12-28T18:39:00.086Z,2.4
2022-12-28T18:41:05.872Z,1.8
2022-12-28T18:43:11.668Z,2.4
2022-12-28T18:45:20.381Z,2.8
2022-12-28T18:47:26.090Z,2.4
2022-12-28T18:49:31.827Z,2.6
2022-12-28T18:54:08.935Z,1.8
2022-12-28T19:02:35.396Z,3
2022-12-28T19:06:46.834Z,1.2
2022-12-28T19:08:52.551Z,3
2022-12-28T19:10:58.284Z,3.2
2022-12-28T19:13:06.968Z,3.2
2022-12-28T19:17:18.605Z,2.1
2022-12-28T19:19:24.319Z,2.5
2022-12-28T19:21:30.074Z,2.2
2022-12-28T19:25:41.572Z,2.6
2022-12-28T19:29:56.180Z,2.4
2022-12-28T19:32:01.910Z,2.1
2022-12-28T19:34:07.723Z,1.6
2022-12-28T19:38:19.347Z,2.5
2022-12-28T19:42:33.966Z,6.6
2022-12-28T19:44:39.772Z,2.7
2022-12-28T19:46:45.607Z,2
2022-12-28T19:47:49.930Z,2.7
2022-12-28T19:49:55.724Z,3.3
2022-12-28T19:52:01.594Z,2.3
2022-12-28T19:54:07.405Z,2.7
2022-12-28T19:56:16.293Z,2.4
2022-12-28T19:58:22.111Z,2.2
2022-12-28T20:00:27.824Z,2.1
2022-12-28T20:02:33.761Z,2.9
2022-12-28T20:04:39.452Z,4.1
2022-12-28T20:06:45.275Z,5
2022-12-28T20:08:51.092Z,5.2
2022-12-28T20:10:59.851Z,3.1
2022-12-28T20:13:05.592Z,3
2022-12-28T20:15:11.420Z,3.5
2022-12-28T20:17:17.217Z,2.8
2022-12-28T20:19:22.925Z,3.3
2022-12-28T20:21:28.698Z,3.1
2022-12-28T20:23:34.460Z,2.7
2022-12-28T20:25:43.165Z,3.6
2022-12-28T20:27:48.875Z,3.7
2022-12-28T20:29:54.701Z,3.7
2022-12-28T20:32:00.498Z,3.3
2022-12-28T20:34:06.214Z,2.9
2022-12-28T20:36:11.944Z,3
2022-12-28T20:38:17.681Z,4.1
2022-12-28T20:40:26.340Z,2.9
2022-12-28T20:42:32.166Z,3
2022-12-28T20:44:37.990Z,3.6
2022-12-28T20:47:48.175Z,3.2
2022-12-28T20:49:53.886Z,4.4
2022-12-28T20:51:59.709Z,3.9
2022-12-28T20:54:10.007Z,5
2022-12-28T20:56:15.696Z,4
2022-12-28T20:58:21.424Z,3.1
2022-12-28T21:00:27.245Z,4.7
2022-12-28T21:02:32.967Z,5.7
2022-12-28T21:04:38.696Z,3.5
2022-12-28T21:06:45.769Z,3.9
2022-12-28T21:08:53.127Z,4
2022-12-28T21:10:58.863Z,4.2
2022-12-28T21:13:04.563Z,4.6
2022-12-28T21:17:16.251Z,4.2
2022-12-28T21:19:22.058Z,3.6
2022-12-28T21:21:27.796Z,3.7
2022-12-28T21:23:36.602Z,4.6
2022-12-28T21:27:48.292Z,4.7
2022-12-28T21:29:54.002Z,3.2
2022-12-28T21:31:59.731Z,3.3
2022-12-28T21:34:05.435Z,3.4
2022-12-28T21:36:11.190Z,3.5
2022-12-28T21:38:19.873Z,2.9
2022-12-28T21:40:25.605Z,4.1
2022-12-28T21:42:31.326Z,3.4
2022-12-28T21:43:35.699Z,4.9
2022-12-28T21:45:41.491Z,3.5
2022-12-28T21:47:47.164Z,2.8
2022-12-28T21:49:52.900Z,3.6
2022-12-28T21:52:01.597Z,2.5
2022-12-28T21:54:07.366Z,2.7
2022-12-28T21:58:18.820Z,2.6
2022-12-28T22:02:30.483Z,2.9
2022-12-28T22:04:36.048Z,3.5
2022-12-28T22:08:50.484Z,2.8
2022-12-28T22:10:56.648Z,2.7
2022-12-28T22:13:01.960Z,2.9
2022-12-28T22:15:07.692Z,3.3
2022-12-28T22:17:14.617Z,3
2022-12-28T22:19:19.161Z,3.1
2022-12-28T22:21:27.884Z,3
2022-12-28T22:23:35.112Z,2.8
2022-12-28T22:25:39.388Z,2.4
2022-12-28T22:27:45.127Z,2.6
2022-12-28T22:29:50.868Z,3
2022-12-28T22:31:56.618Z,2.8
2022-12-28T22:34:07.143Z,2.7
2022-12-28T22:36:11.027Z,3
2022-12-28T22:38:16.787Z,3.3
2022-12-28T22:40:22.534Z,2
2022-12-28T22:46:59.374Z,3.4
2022-12-28T22:49:08.074Z,3.1
2022-12-28T22:53:19.562Z,3.2
2022-12-28T22:57:31.029Z,3.2
2022-12-28T22:59:36.761Z,3.3
2022-12-28T23:01:42.660Z,3.1
2022-12-28T23:03:51.217Z,3.9
2022-12-28T23:05:56.936Z,3.1
2022-12-28T23:10:08.443Z,2.7
2022-12-28T23:12:14.173Z,3
2022-12-28T23:14:19.920Z,2.9
2022-12-28T23:16:25.738Z,2.8
2022-12-28T23:18:34.366Z,3
2022-12-28T23:20:40.134Z,3
2022-12-28T23:22:45.846Z,3
2022-12-28T23:24:51.618Z,3
2022-12-28T23:26:57.337Z,2.9
2022-12-28T23:29:03.089Z,3.2
2022-12-28T23:31:08.865Z,2.8
2022-12-28T23:33:17.508Z,3.1
2022-12-28T23:37:29.022Z,2.5
2022-12-28T23:38:33.372Z,2.5
2022-12-28T23:40:39.131Z,2.8
2022-12-28T23:44:50.620Z,2.5
2022-12-28T23:46:59.841Z,2.9
2022-12-28T23:49:05.084Z,3
2022-12-28T23:51:10.835Z,2.8
2022-12-28T23:53:16.559Z,1.9
2022-12-28T23:55:22.343Z,2.2
2022-12-28T23:57:28.096Z,1.6
2022-12-28T23:59:33.838Z,2.2
